Republic Airport Farmingdale US
ICAO: KFRG
IATA: FRG
Category: Medium
Scheduled Services: No

Elevation: 82 ft
TransAlt. 18000 ft.

Airport Communications:
NEW YORK APP:118.4
ATIS:126.65
CLNC DEL:128.25
CTAF:118.8
NEW YORK DEP:123.7
GND:121.6
:111.9
TWR:118.8
UNICOM:122.95

KFRG Zoom In..

If you have problems with the map follow the link
https://www.worldairports.se/pages/airport.php?
ICAO=KFRG

Runways:

(A) RW 01 length 5516 ft width 150 ft
---- / hdg 13

(B) RW 14 length 6833 ft width 150 ft
ILS 111.90 / hdg 146

(C) RW 19 length 5516 ft width 150 ft
---- / hdg 193

(D) RW 32 length 6833 ft width 150 ft
---- / hdg 326

Location; KFRG
Day. 20 / Time. 21.08 Zulu
* Altimeter: 30.42
* Temperature: -02° c. -28.4°f.
* Wind from: 080° Speed 07 kn.
Dewpoint: -04° c.
Visibility: 3/4 Statute Miles.
Clouds: Broken 800 ft.
Clouds: Overcast 2600 ft.
Conditions: Light Snow.Conditions: Mist.

KFRG 202108Z 08007KT 3/4SM -SN BR BKN008 OVC026 M02/M04 A3042 RMK AO2 SFC VIS 1 3/4 P0000 T10221039


Wind From 080°
Speed 07 kn.

 
 
jpsmedia.com for Web Design worldairports.se 2019   terms of use